Time;durP1;ratioP1;P1;durP2;ratioP2;P2;SDS_P1;SDS_P2;PMS_P1;PMS_P2;Temp;Humidity;BMP_temperature;BMP_pressure;BME280_temperature;BME280_humidity;BME280_pressure;Samples;Min_cycle;Max_cycle;Signal;HPM_P1;HPM_P2
2022/02/24 00:01:47;;;;;;;54.80;23.60;;;;;;;0.30;78.27;99258.20;106447;1278;22719;-74
2022/02/24 00:04:17;;;;;;;56.20;22.60;;;;;;;0.29;78.21;99253.95;106092;1280;24221;-74
2022/02/24 00:06:44;;;;;;;60.20;23.40;;;;;;;0.29;78.34;99251.33;105913;1280;137977;-74
2022/02/24 00:09:11;;;;;;;55.30;22.70;;;;;;;0.27;78.04;99252.60;106264;1280;22676;-74
2022/02/24 00:11:38;;;;;;;51.80;22.70;;;;;;;0.26;78.26;99254.30;106046;1280;138218;-73
2022/02/24 00:14:19;;;;;;;53.30;22.60;;;;;;;0.26;78.29;99251.59;106073;1280;22589;-73
2022/02/24 00:16:46;;;;;;;51.90;22.50;;;;;;;0.27;78.36;99254.87;105857;1278;138173;-73
2022/02/24 00:19:13;;;;;;;48.00;21.50;;;;;;;0.28;78.10;99256.20;106069;1278;23955;-74
2022/02/24 00:21:40;;;;;;;55.70;23.40;;;;;;;0.27;78.50;99257.19;106057;1280;24316;-73
2022/02/24 00:24:21;;;;;;;56.60;23.10;;;;;;;0.26;78.12;99256.14;106348;1280;137564;-73
2022/02/24 00:26:48;;;;;;;53.80;24.80;;;;;;;0.22;78.12;99257.26;106596;1280;24611;-74
2022/02/24 00:29:26;;;;;;;53.50;24.40;;;;;;;0.17;78.01;99256.14;105828;1279;138147;-73
2022/02/24 00:31:53;;;;;;;52.80;23.90;;;;;;;0.13;77.82;99254.92;105964;1280;22588;-73
2022/02/24 00:34:23;;;;;;;54.50;23.40;;;;;;;0.10;78.10;99252.90;105913;1278;23957;-73
2022/02/24 00:36:52;;;;;;;69.90;26.70;;;;;;;0.09;78.31;99250.55;106429;1278;137724;-72
2022/02/24 00:39:20;;;;;;;62.70;26.80;;;;;;;0.09;78.57;99242.89;106751;1278;25528;-73
2022/02/24 00:41:48;;;;;;;63.50;27.30;;;;;;;0.05;78.21;99235.70;106286;1277;137697;-73
2022/02/24 00:44:16;;;;;;;63.00;26.60;;;;;;;0.02;78.09;99233.41;105835;1280;22706;-73
2022/02/24 00:46:43;;;;;;;66.60;27.30;;;;;;;-0.01;78.27;99226.92;106126;1280;138327;-74
2022/02/24 00:49:10;;;;;;;67.60;27.90;;;;;;;-0.06;78.37;99227.53;106199;1280;22639;-75
2022/02/24 00:51:38;;;;;;;57.40;26.80;;;;;;;-0.09;78.27;99228.31;105938;1280;22593;-74
2022/02/24 00:54:06;;;;;;;64.60;26.40;;;;;;;-0.14;78.50;99225.78;105743;1280;137837;-75
2022/02/24 00:56:33;;;;;;;70.70;27.20;;;;;;;-0.20;78.70;99224.16;106314;1277;22572;-74
2022/02/24 00:59:00;;;;;;;64.10;27.20;;;;;;;-0.24;78.70;99224.64;105926;1278;137761;-74
2022/02/24 01:01:27;;;;;;;60.10;24.40;;;;;;;-0.28;79.03;99224.98;106288;1280;22570;-75
2022/02/24 01:03:54;;;;;;;57.70;23.70;;;;;;;-0.29;79.09;99223.46;106198;1278;24088;-74
2022/02/24 01:06:21;;;;;;;67.90;26.10;;;;;;;-0.30;79.22;99222.86;106175;1280;138354;-74
2022/02/24 01:08:48;;;;;;;65.20;25.00;;;;;;;-0.29;79.55;99220.52;105700;1280;25510;-74
2022/02/24 01:11:15;;;;;;;60.70;25.60;;;;;;;-0.31;79.56;99221.55;105744;1280;138682;-72
2022/02/24 01:13:42;;;;;;;61.40;27.10;;;;;;;-0.33;79.74;99221.80;106107;1278;23210;-71
2022/02/24 01:16:09;;;;;;;55.30;25.50;;;;;;;-0.35;79.88;99217.73;105890;1277;31333;-71
2022/02/24 01:18:36;;;;;;;59.40;25.60;;;;;;;-0.35;80.02;99215.45;105793;1278;138383;-71
2022/02/24 01:21:04;;;;;;;56.90;23.20;;;;;;;-0.36;79.93;99219.09;106197;1277;24266;-71
2022/02/24 01:23:31;;;;;;;61.60;22.80;;;;;;;-0.36;80.24;99217.79;106019;1280;137705;-71
2022/02/24 01:25:58;;;;;;;54.30;21.90;;;;;;;-0.35;80.61;99219.44;106059;1280;23166;-71
2022/02/24 01:28:25;;;;;;;58.10;21.50;;;;;;;-0.35;80.44;99215.19;106391;1280;22646;-71
2022/02/24 01:30:52;;;;;;;58.00;24.40;;;;;;;-0.36;80.42;99211.54;105850;1280;137951;-71
2022/02/24 01:33:19;;;;;;;55.00;21.80;;;;;;;-0.35;80.60;99214.34;106002;1280;24851;-71
2022/02/24 01:35:46;;;;;;;51.80;21.10;;;;;;;-0.35;80.71;99209.84;106029;1278;138419;-71
2022/02/24 01:38:13;;;;;;;53.30;22.00;;;;;;;-0.33;80.50;99212.73;106161;1278;22566;-71
2022/02/24 01:40:40;;;;;;;51.00;20.30;;;;;;;-0.34;80.51;99209.58;106009;1278;137831;-71
2022/02/24 01:43:06;;;;;;;53.40;21.40;;;;;;;-0.36;80.58;99209.58;106069;1278;22565;-71
2022/02/24 01:45:34;;;;;;;45.10;20.50;;;;;;;-0.39;80.69;99206.80;105965;1278;22577;-71
2022/02/24 01:48:00;;;;;;;47.00;18.40;;;;;;;-0.40;80.60;99196.46;105899;1280;138313;-71
2022/02/24 01:50:28;;;;;;;47.10;19.50;;;;;;;-0.42;80.69;99193.61;105881;1280;22547;-70
2022/02/24 01:52:56;;;;;;;49.60;18.80;;;;;;;-0.42;80.87;99192.50;106121;1280;138586;-70
2022/02/24 01:55:23;;;;;;;40.10;17.80;;;;;;;-0.41;80.78;99192.44;106234;1280;22570;-71
2022/02/24 01:57:50;;;;;;;45.90;19.10;;;;;;;-0.42;80.72;99193.57;106228;1277;22565;-71
2022/02/24 02:00:18;;;;;;;41.60;17.30;;;;;;;-0.42;80.80;99196.24;105774;1278;138342;-71
2022/02/24 02:02:45;;;;;;;43.70;18.40;;;;;;;-0.43;80.70;99200.09;106203;1278;22557;-71
2022/02/24 02:05:12;;;;;;;49.00;19.30;;;;;;;-0.45;80.53;99201.44;105993;1278;138593;-71
2022/02/24 02:07:40;;;;;;;46.30;18.80;;;;;;;-0.46;80.47;99200.06;106147;1280;23718;-71
2022/02/24 02:10:08;;;;;;;45.20;18.40;;;;;;;-0.47;80.39;99206.07;106282;1280;25537;-71
2022/02/24 02:12:50;;;;;;;39.50;18.60;;;;;;;-0.48;80.58;99206.73;106519;1280;137640;-71
2022/02/24 02:15:18;;;;;;;40.80;19.20;;;;;;;-0.48;80.75;99207.60;105938;1279;25277;-71
2022/02/24 02:17:46;;;;;;;41.70;20.20;;;;;;;-0.48;80.53;99212.98;106042;1277;137644;-71
2022/02/24 02:20:13;;;;;;;45.30;21.80;;;;;;;-0.48;80.78;99210.89;106131;1278;22691;-71
2022/02/24 02:22:54;;;;;;;46.10;19.90;;;;;;;-0.46;81.17;99208.81;105918;1278;138932;-71
2022/02/24 02:25:22;;;;;;;51.30;18.70;;;;;;;-0.44;80.67;99207.20;105936;1278;25220;-71
2022/02/24 02:27:52;;;;;;;41.00;17.50;;;;;;;-0.44;80.55;99201.51;106290;1280;22582;-71
2022/02/24 02:30:20;;;;;;;;;;;;;;;-0.45;80.54;99206.40;105842;1280;138104;-71
2022/02/24 02:32:48;;;;;;;45.00;17.70;;;;;;;-0.47;80.61;99207.30;106202;1280;23307;-71
2022/02/24 02:35:15;;;;;;;49.60;18.20;;;;;;;-0.49;80.40;99214.52;106067;1280;138287;-71
2022/02/24 02:37:43;;;;;;;49.40;20.00;;;;;;;-0.55;80.64;99213.63;106153;1278;24408;-71
2022/02/24 02:40:12;;;;;;;46.40;20.30;;;;;;;-0.60;80.43;99215.06;105920;1281;22712;-71
2022/02/24 02:42:39;;;;;;;;;;;;;;;-0.65;80.44;99217.64;106529;1278;139108;-71
2022/02/24 02:45:07;;;;;;;44.80;18.90;;;;;;;-0.68;80.40;99215.48;106457;1277;23919;-71
2022/02/24 02:47:35;;;;;;;46.90;21.40;;;;;;;-0.71;80.47;99214.57;105896;1280;137882;-71
2022/02/24 02:50:03;;;;;;;51.20;21.00;;;;;;;-0.74;80.54;99215.42;105840;1281;22704;-71
2022/02/24 02:52:30;;;;;;;52.30;22.70;;;;;;;-0.77;80.57;99222.58;106463;1280;22599;-71
2022/02/24 02:55:11;;;;;;;54.90;25.40;;;;;;;-0.80;81.03;99222.79;106013;1280;137877;-71
2022/02/24 02:57:39;;;;;;;63.20;25.30;;;;;;;-0.81;81.07;99218.02;106145;1280;24261;-71
2022/02/24 03:00:10;;;;;;;54.80;25.80;;;;;;;-0.81;81.13;99216.56;106407;1278;138943;-71
2022/02/24 03:02:37;;;;;;;58.60;25.50;;;;;;;-0.79;81.37;99217.04;106048;1280;24302;-71
2022/02/24 03:05:05;;;;;;;62.90;25.30;;;;;;;-0.78;81.51;99212.55;106082;1278;137825;-71
2022/02/24 03:07:32;;;;;;;60.70;25.20;;;;;;;-0.77;81.39;99212.48;106246;1278;24265;-71
2022/02/24 03:09:59;;;;;;;55.50;24.80;;;;;;;-0.79;80.96;99212.61;105920;1280;22547;-71
2022/02/24 03:12:40;;;;;;;57.20;25.10;;;;;;;-0.81;81.13;99209.48;106039;1281;137770;-71
2022/02/24 03:15:13;;;;;;;57.90;25.00;;;;;;;-0.83;81.02;99207.15;105926;1281;24262;-71
2022/02/24 03:17:44;;;;;;;64.80;25.90;;;;;;;-0.85;81.27;99209.85;105771;1277;139273;-71
2022/02/24 03:20:12;;;;;;;60.90;25.90;;;;;;;-0.86;81.38;99209.59;105838;1281;22558;-71
2022/02/24 03:22:39;;;;;;;59.30;25.30;;;;;;;-0.84;81.75;99209.65;106069;1278;137817;-71
2022/02/24 03:25:07;;;;;;;54.10;25.10;;;;;;;-0.84;81.46;99208.52;106238;1278;25267;-71
2022/02/24 03:27:34;;;;;;;60.70;25.50;;;;;;;-0.85;81.61;99209.20;106046;1278;25471;-71
2022/02/24 03:30:03;;;;;;;59.30;25.30;;;;;;;-0.86;81.68;99207.48;105761;1281;138538;-71
2022/02/24 03:32:30;;;;;;;59.40;24.80;;;;;;;-0.85;81.71;99204.92;105826;1284;22573;-71
2022/02/24 03:35:11;;;;;;;56.50;25.00;;;;;;;-0.83;81.64;99203.61;105862;1280;137806;-71
2022/02/24 03:37:39;;;;;;;64.00;24.30;;;;;;;-0.83;81.61;99197.23;105881;1277;22547;-71
2022/02/24 03:40:08;;;;;;;52.20;24.70;;;;;;;-0.85;81.56;99195.41;105977;1278;24211;-71
2022/02/24 03:42:35;;;;;;;58.00;24.40;;;;;;;-0.87;81.45;99196.70;106200;1278;137988;-71
2022/02/24 03:45:06;;;;;;;59.10;25.00;;;;;;;-0.92;81.31;99195.94;106042;1277;22554;-71
2022/02/24 03:47:33;;;;;;;56.40;25.00;;;;;;;-0.95;81.49;99193.58;106168;1281;138979;-71
2022/02/24 03:50:02;;;;;;;58.60;25.40;;;;;;;-0.97;81.48;99193.02;106055;1280;25255;-71
2022/02/24 03:52:29;;;;;;;57.20;23.10;;;;;;;-0.98;81.30;99193.88;105978;1280;22595;-71
2022/02/24 03:54:56;;;;;;;49.90;23.80;;;;;;;-1.01;81.34;99192.88;105843;1281;137458;-71
2022/02/24 03:57:24;;;;;;;56.10;24.00;;;;;;;-1.03;81.75;99190.27;106038;1281;25426;-71
2022/02/24 04:00:07;;;;;;;62.90;25.60;;;;;;;-1.02;82.18;99185.58;105974;1277;137628;-71
2022/02/24 04:02:39;;;;;;;55.60;26.70;;;;;;;-1.02;82.22;99188.39;106025;1281;25474;-71
2022/02/24 04:05:08;;;;;;;57.20;25.60;;;;;;;-1.02;82.04;99189.42;105775;1278;138490;-71
2022/02/24 04:07:35;;;;;;;62.10;26.00;;;;;;;-1.02;82.08;99183.55;106133;1277;25242;-71
2022/02/24 04:10:04;;;;;;;58.80;25.70;;;;;;;-1.00;82.40;99179.85;106437;1280;23104;-71
2022/02/24 04:12:31;;;;;;;60.40;27.30;;;;;;;-0.99;82.52;99174.16;106204;1280;138003;-71
2022/02/24 04:14:58;;;;;;;58.40;26.50;;;;;;;-0.98;82.66;99170.29;106176;1280;22573;-71
2022/02/24 04:17:25;;;;;;;60.10;25.80;;;;;;;-0.98;82.32;99169.80;105957;1281;137657;-71
2022/02/24 04:19:52;;;;;;;57.90;23.80;;;;;;;-0.99;82.29;99170.27;106076;1278;22662;-71
2022/02/24 04:22:19;;;;;;;58.80;25.10;;;;;;;-1.00;82.24;99168.02;105995;1277;25260;-71
2022/02/24 04:24:46;;;;;;;59.30;25.40;;;;;;;-1.02;82.18;99164.90;106037;1277;138238;-71
2022/02/24 04:27:13;;;;;;;54.40;23.50;;;;;;;-1.04;82.16;99168.48;106146;1278;22590;-71
2022/02/24 04:29:41;;;;;;;52.10;24.40;;;;;;;-1.05;82.36;99168.70;105949;1279;138572;-71
2022/02/24 04:32:08;;;;;;;55.00;22.70;;;;;;;-1.08;82.05;99169.20;106007;1281;24232;-71
2022/02/24 04:34:35;;;;;;;56.50;26.00;;;;;;;-1.16;82.18;99170.00;105810;1280;138176;-71
2022/02/24 04:37:02;;;;;;;63.60;26.90;;;;;;;-1.29;81.63;99167.95;106359;1281;22713;-71
2022/02/24 04:39:29;;;;;;;56.20;24.40;;;;;;;-1.41;81.99;99162.42;105961;1278;25478;-71
2022/02/24 04:41:56;;;;;;;50.40;23.50;;;;;;;-1.44;82.48;99165.76;106043;1277;138472;-71
2022/02/24 04:44:23;;;;;;;57.50;23.10;;;;;;;-1.44;82.98;99167.77;106267;1277;22575;-71
2022/02/24 04:46:50;;;;;;;52.20;21.50;;;;;;;-1.44;83.01;99162.41;106198;1277;138337;-71
2022/02/24 04:49:17;;;;;;;46.90;21.70;;;;;;;-1.46;83.23;99161.56;106199;1278;24323;-71
2022/02/24 04:51:44;;;;;;;51.70;21.10;;;;;;;-1.48;83.06;99159.08;106031;1281;22577;-71
2022/02/24 04:54:10;;;;;;;53.10;21.30;;;;;;;-1.49;83.21;99152.08;105843;1281;138356;-71
2022/02/24 04:56:37;;;;;;;52.10;22.00;;;;;;;-1.46;83.41;99160.86;106165;1281;22629;-71
2022/02/24 04:59:04;;;;;;;49.10;19.90;;;;;;;-1.45;83.41;99155.92;106093;1278;138055;-71
2022/02/24 05:01:31;;;;;;;48.30;20.80;;;;;;;-1.43;83.51;99149.89;106405;1277;24272;-71
2022/02/24 05:03:58;;;;;;;46.50;21.60;;;;;;;-1.41;83.60;99146.63;106028;1277;24433;-71
2022/02/24 05:06:26;;;;;;;55.80;21.50;;;;;;;-1.38;83.53;99142.44;106223;1278;138783;-71
2022/02/24 05:08:53;;;;;;;45.60;21.00;;;;;;;-1.36;83.37;99141.34;106213;1277;22617;-70
2022/02/24 05:11:20;;;;;;;51.10;20.00;;;;;;;-1.33;83.34;99137.52;105777;1280;138218;-70
2022/02/24 05:13:46;;;;;;;50.20;19.30;;;;;;;-1.33;83.21;99140.29;105905;1281;26525;-71
2022/02/24 05:16:14;;;;;;;50.90;19.80;;;;;;;-1.33;83.14;99139.80;105986;1281;22570;-70
2022/02/24 05:18:41;;;;;;;51.10;21.10;;;;;;;-1.35;83.06;99139.64;105960;1278;137713;-70
2022/02/24 05:21:07;;;;;;;47.50;18.90;;;;;;;-1.37;83.01;99137.66;106098;1278;23834;-70
2022/02/24 05:23:36;;;;;;;42.20;16.70;;;;;;;-1.37;83.03;99133.88;105823;1277;138002;-70
2022/02/24 05:26:04;;;;;;;42.00;15.80;;;;;;;-1.34;83.17;99131.00;105963;1278;25257;-70
2022/02/24 05:28:30;;;;;;;40.00;15.10;;;;;;;-1.34;83.12;99128.84;106047;1277;25254;-70
2022/02/24 05:30:59;;;;;;;34.60;15.00;;;;;;;-1.35;83.10;99129.43;105965;1281;137483;-70
2022/02/24 05:33:27;;;;;;;35.00;13.90;;;;;;;-1.36;83.08;99129.52;105999;1280;22601;-70
2022/02/24 05:35:55;;;;;;;32.80;13.70;;;;;;;-1.36;82.98;99128.85;106084;1279;138967;-70
2022/02/24 05:38:22;;;;;;;30.50;12.50;;;;;;;-1.37;82.83;99122.88;106252;1280;25339;-71
2022/02/24 05:40:49;;;;;;;31.30;12.10;;;;;;;-1.37;82.95;99125.49;105843;1277;138584;-70
2022/02/24 05:43:16;;;;;;;33.10;12.30;;;;;;;-1.36;83.06;99124.94;105824;1277;22564;-70
2022/02/24 05:45:43;;;;;;;30.90;12.50;;;;;;;-1.37;82.87;99128.01;105955;1277;23128;-70
2022/02/24 05:48:11;;;;;;;30.30;12.60;;;;;;;-1.37;83.13;99126.95;105952;1277;137947;-70
2022/02/24 05:50:39;;;;;;;33.00;12.60;;;;;;;-1.35;83.00;99128.42;106364;1277;24323;-70
2022/02/24 05:53:06;;;;;;;27.60;12.40;;;;;;;-1.33;83.14;99129.80;106308;1280;138685;-70
2022/02/24 05:55:47;;;;;;;27.30;11.00;;;;;;;-1.29;82.84;99129.77;105916;1280;24313;-70
2022/02/24 05:58:14;;;;;;;29.10;11.70;;;;;;;-1.25;82.65;99128.90;106034;1280;23684;-73
2022/02/24 06:00:41;;;;;;;31.50;12.70;;;;;;;-1.24;82.75;99125.40;105892;1278;137632;-70
2022/02/24 06:03:08;;;;;;;31.10;13.70;;;;;;;-1.21;82.77;99125.48;106043;1277;22560;-70
2022/02/24 06:05:35;;;;;;;29.90;13.40;;;;;;;-1.20;82.52;99126.06;106288;1278;137782;-70
2022/02/24 06:08:02;;;;;;;32.40;13.20;;;;;;;-1.20;82.46;99126.92;106118;1277;22582;-70
2022/02/24 06:10:29;;;;;;;33.90;14.50;;;;;;;-1.19;82.56;99128.41;106031;1278;23008;-70
2022/02/24 06:12:57;;;;;;;38.60;13.10;;;;;;;-1.15;82.74;99125.39;105821;1280;138197;-71
2022/02/24 06:15:25;;;;;;;36.90;13.80;;;;;;;-1.10;82.70;99121.16;106232;1279;22553;-71
2022/02/24 06:18:10;;;;;;;33.10;13.40;;;;;;;-1.06;82.81;99119.29;106113;1279;138043;-71
2022/02/24 06:20:37;;;;;;;36.00;13.10;;;;;;;-1.02;82.75;99118.19;106107;1277;25269;-71
2022/02/24 06:23:04;;;;;;;33.80;14.20;;;;;;;-0.99;82.76;99115.55;105863;1277;137806;-71
2022/02/24 06:25:30;;;;;;;44.70;16.70;;;;;;;-0.97;82.52;99114.66;106025;1277;22646;-71
2022/02/24 06:27:58;;;;;;;35.80;15.10;;;;;;;-0.95;82.44;99116.74;106115;1277;22551;-71
2022/02/24 06:30:26;;;;;;;36.60;14.80;;;;;;;-0.89;82.65;99112.30;105888;1277;137926;-70
2022/02/24 06:32:53;;;;;;;34.60;14.40;;;;;;;-0.84;82.50;99110.54;106525;1279;23128;-70
2022/02/24 06:35:20;;;;;;;39.10;15.20;;;;;;;-0.83;82.37;99109.16;106165;1280;137895;-70
2022/02/24 06:37:46;;;;;;;40.00;16.70;;;;;;;-0.83;82.17;99110.19;106231;1280;25592;-70
2022/02/24 06:40:14;;;;;;;38.30;17.40;;;;;;;-0.81;82.30;99108.04;105751;1278;22646;-72
2022/02/24 06:42:41;;;;;;;37.30;18.30;;;;;;;-0.77;82.92;99106.62;106308;1277;137712;-71
2022/02/24 06:45:09;;;;;;;39.80;16.40;;;;;;;-0.73;82.65;99108.29;105883;1277;22541;-72
2022/02/24 06:47:51;;;;;;;32.50;15.90;;;;;;;-0.66;82.45;99107.23;105727;1277;138461;-71
2022/02/24 06:50:18;;;;;;;53.40;19.30;;;;;;;-0.59;82.63;99108.84;105957;1277;24322;-71
2022/02/24 06:52:46;;;;;;;46.40;20.60;;;;;;;-0.56;82.45;99104.25;106992;1279;137845;-71
2022/02/24 06:55:13;;;;;;;49.70;20.90;;;;;;;-0.54;82.56;99101.61;105970;1280;22895;-70
2022/02/24 06:57:52;;;;;;;42.60;19.70;;;;;;;-0.52;82.97;99096.71;106620;1279;25436;-71
2022/02/24 07:00:21;;;;;;;47.40;20.40;;;;;;;-0.49;82.93;99101.39;106210;1280;138581;-70
2022/02/24 07:02:48;;;;;;;36.20;17.70;;;;;;;-0.43;83.19;99094.30;106869;1277;28991;-72
2022/02/24 07:05:15;;;;;;;32.90;15.40;;;;;;;-0.32;83.03;99098.43;107024;1277;138149;-71
2022/02/24 07:07:43;;;;;;;31.40;14.40;;;;;;;-0.23;82.85;99097.98;106998;1277;22603;-71
2022/02/24 07:10:12;;;;;;;29.40;13.40;;;;;;;-0.13;82.56;99096.83;106428;1277;22570;-71
2022/02/24 07:12:40;;;;;;;52.50;22.00;;;;;;;-0.06;82.39;99095.51;106196;1278;138191;-71
2022/02/24 07:15:09;;;;;;;61.40;30.30;;;;;;;-0.03;82.62;99093.77;106239;1280;25563;-71
2022/02/24 07:17:44;;;;;;;66.90;30.50;;;;;;;-0.04;82.14;99092.44;106700;1279;137865;-71
2022/02/24 07:20:15;;;;;;;72.20;30.90;;;;;;;-0.05;82.26;99085.79;106516;1279;22592;-73
2022/02/24 07:22:56;;;;;;;71.50;28.80;;;;;;;-0.01;82.61;99083.25;106355;1278;139037;-71
2022/02/24 07:25:23;;;;;;;51.70;24.10;;;;;;;0.06;82.58;99083.23;105976;1277;25439;-71
2022/02/24 07:27:50;;;;;;;37.70;16.60;;;;;;;0.15;82.82;99077.55;106528;1277;22707;-71
2022/02/24 07:30:17;;;;;;;36.10;13.80;;;;;;;0.28;82.67;99080.55;107191;1277;137534;-71
2022/02/24 07:32:45;;;;;;;27.10;10.80;;;;;;;0.40;82.52;99074.16;106283;1280;23410;-71
2022/02/24 07:35:12;;;;;;;33.00;11.20;;;;;;;0.53;81.90;99073.79;107018;1279;137796;-71
2022/02/24 07:37:40;;;;;;;27.70;9.80;;;;;;;0.63;81.45;99073.38;106392;1280;25271;-71
2022/02/24 07:40:09;;;;;;;20.00;8.70;;;;;;;0.72;80.88;99066.49;106226;1280;22621;-71
2022/02/24 07:42:36;;;;;;;24.20;8.50;;;;;;;0.81;80.67;99063.38;106545;1278;348982;-71
2022/02/24 07:45:04;;;;;;;27.70;9.60;;;;;;;0.89;80.26;99063.05;106317;1278;22589;-71
2022/02/24 07:47:31;;;;;;;17.40;8.40;;;;;;;0.98;79.95;99057.82;106516;1277;137662;-71
2022/02/24 07:49:59;;;;;;;16.90;7.30;;;;;;;1.09;79.65;99055.66;106664;1277;25413;-72
2022/02/24 07:52:26;;;;;;;21.10;7.70;;;;;;;1.21;79.37;99053.67;106369;1280;22660;-71
2022/02/24 07:54:54;;;;;;;18.10;7.60;;;;;;;1.32;79.18;99050.80;106475;1279;137220;-71
2022/02/24 07:57:22;;;;;;;19.70;9.20;;;;;;;1.44;78.84;99046.23;106628;1280;22572;-71
2022/02/24 07:59:49;;;;;;;20.60;7.60;;;;;;;1.55;78.63;99042.66;106586;1280;138080;-71
2022/02/24 08:02:16;;;;;;;19.00;8.10;;;;;;;1.66;78.29;99040.02;106357;1277;22545;-71
2022/02/24 08:04:45;;;;;;;17.60;7.30;;;;;;;1.75;78.07;99039.71;106759;1277;138984;-71
2022/02/24 08:07:11;;;;;;;15.60;6.20;;;;;;;1.83;77.53;99034.66;106145;1277;25316;-72
2022/02/24 08:09:38;;;;;;;19.90;8.00;;;;;;;1.92;77.20;99030.30;105916;1278;24272;-72
2022/02/24 08:15:16;;;;;;;21.40;9.00;;;;;;;2.09;77.06;99018.52;105663;1280;22586;-70
2022/02/24 08:17:44;;;;;;;25.50;9.00;;;;;;;2.19;76.88;99016.95;105636;1280;137996;-71
2022/02/24 08:20:12;;;;;;;25.20;9.20;;;;;;;2.30;76.38;99016.52;106016;1280;22685;-71
2022/02/24 08:22:43;;;;;;;27.00;7.80;;;;;;;2.40;76.12;99012.72;105890;1278;138317;-71
2022/02/24 08:25:13;;;;;;;16.50;6.60;;;;;;;2.51;75.79;99008.11;105744;1278;22730;-71
2022/02/24 08:27:41;;;;;;;19.30;6.60;;;;;;;2.61;75.01;99007.42;105990;1277;25159;-72
2022/02/24 08:30:12;;;;;;;17.70;5.50;;;;;;;2.71;74.44;99002.91;105680;1278;139680;-71
2022/02/24 08:32:41;;;;;;;10.10;5.20;;;;;;;2.82;73.81;98998.58;105925;1277;22651;-71
2022/02/24 08:35:10;;;;;;;14.10;4.40;;;;;;;2.91;73.26;98996.65;105509;1280;137546;-71
2022/02/24 08:37:38;;;;;;;;;;;;;;;3.00;72.75;98993.41;105518;1280;22723;-71
2022/02/24 08:40:07;;;;;;;14.10;4.80;;;;;;;3.07;72.11;98986.80;105788;1280;22835;-71
2022/02/24 08:42:33;;;;;;;12.20;4.70;;;;;;;3.15;71.61;98978.31;106057;1280;137449;-71
2022/02/24 08:45:01;;;;;;;13.70;4.80;;;;;;;3.21;71.51;98972.00;105904;1278;30466;-70
2022/02/24 08:47:28;;;;;;;11.20;4.60;;;;;;;3.31;71.33;98974.48;105823;1277;137457;-70
2022/02/24 08:49:55;;;;;;;13.00;4.70;;;;;;;3.39;70.98;98972.70;105947;1278;25339;-71
2022/02/24 08:52:22;;;;;;;10.60;4.40;;;;;;;3.47;70.79;98967.60;105938;1277;25389;-71
2022/02/24 08:54:49;;;;;;;13.90;4.90;;;;;;;3.55;70.38;98963.13;105677;1278;137320;-71
2022/02/24 08:57:16;;;;;;;11.60;4.50;;;;;;;3.63;70.47;98952.09;105636;1280;22573;-70
2022/02/24 08:59:43;;;;;;;10.80;4.00;;;;;;;3.70;69.96;98948.62;105424;1280;137283;-71
2022/02/24 09:02:24;;;;;;;17.10;4.90;;;;;;;3.81;68.76;98943.23;105704;1280;24383;-70
2022/02/24 09:04:51;;;;;;;17.70;5.20;;;;;;;3.89;68.56;98942.54;105659;1277;138134;-71
2022/02/24 09:07:18;;;;;;;13.00;5.00;;;;;;;3.97;68.23;98931.36;105964;1277;22628;-72
2022/02/24 09:09:45;;;;;;;13.40;4.50;;;;;;;4.06;68.08;98927.73;105821;1278;25359;-71
2022/02/24 09:12:12;;;;;;;12.90;5.50;;;;;;;4.14;68.23;98920.25;106178;1277;137358;-71
2022/02/24 09:14:39;;;;;;;12.70;4.40;;;;;;;4.23;67.62;98911.92;105913;1277;24269;-71
2022/02/24 09:17:06;;;;;;;14.20;4.80;;;;;;;4.35;67.27;98907.01;105530;1280;137859;-71
2022/02/24 09:19:33;;;;;;;15.50;4.60;;;;;;;4.48;67.16;98905.80;106014;1280;22727;-71
2022/02/24 09:22:00;;;;;;;13.20;4.50;;;;;;;4.57;66.81;98902.09;106816;1280;22580;-72
2022/02/24 09:24:28;;;;;;;13.10;4.00;;;;;;;4.66;66.55;98895.36;106222;1277;137306;-71
2022/02/24 09:26:55;;;;;;;11.90;3.40;;;;;;;4.77;66.10;98892.58;106470;1278;22555;-71
2022/02/24 09:29:22;;;;;;;13.60;4.00;;;;;;;4.87;65.64;98889.08;106229;1278;137269;-72
2022/02/24 09:31:49;;;;;;;16.60;4.50;;;;;;;4.97;65.42;98884.58;106118;1277;22572;-71
2022/02/24 09:34:16;;;;;;;9.90;3.90;;;;;;;5.08;65.23;98881.36;106558;1278;22597;-70
2022/02/24 09:36:43;;;;;;;11.10;3.80;;;;;;;5.19;65.08;98879.63;106397;1280;137268;-71
2022/02/24 09:39:11;;;;;;;9.70;3.50;;;;;;;5.30;64.65;98877.41;106540;1280;22704;-71
2022/02/24 09:41:38;;;;;;;9.40;3.50;;;;;;;5.43;63.90;98872.14;106356;1280;137077;-72
2022/02/24 09:44:05;;;;;;;11.00;3.80;;;;;;;5.54;63.25;98870.10;106499;1277;22557;-71
2022/02/24 09:46:34;;;;;;;11.50;5.20;;;;;;;5.66;62.78;98864.20;106539;1277;22544;-72
2022/02/24 09:49:04;;;;;;;10.00;3.90;;;;;;;5.79;62.11;98858.95;106243;1277;137103;-72
2022/02/24 09:51:31;;;;;;;11.90;3.40;;;;;;;5.90;62.21;98859.61;106960;1277;25336;-72
2022/02/24 09:54:00;;;;;;;11.80;4.10;;;;;;;6.02;61.37;98854.76;106350;1277;137433;-72
2022/02/24 09:56:29;;;;;;;10.80;3.50;;;;;;;6.14;60.45;98848.52;106603;1280;30573;-72
2022/02/24 09:59:00;;;;;;;12.30;4.70;;;;;;;6.25;58.83;98839.34;106423;1280;137544;-72
2022/02/24 10:01:27;;;;;;;8.50;3.10;;;;;;;6.37;58.63;98834.13;106321;1280;22554;-72
2022/02/24 10:04:00;;;;;;;7.50;2.90;;;;;;;6.48;58.41;98828.02;106430;1280;23074;-72
2022/02/24 10:06:44;;;;;;;12.60;4.10;;;;;;;6.59;57.86;98822.42;106463;1277;137764;-74
2022/02/24 10:09:20;;;;;;;10.70;3.00;;;;;;;6.73;57.16;98814.02;106286;1277;22878;-72
2022/02/24 10:11:47;;;;;;;8.70;2.70;;;;;;;6.84;57.06;98806.88;106125;1277;137887;-72
2022/02/24 10:14:20;;;;;;;9.80;3.30;;;;;;;6.94;56.75;98795.23;106903;1277;23091;-72
2022/02/24 10:16:59;;;;;;;9.60;3.20;;;;;;;7.05;57.07;98792.02;106395;1280;138784;-72
2022/02/24 10:19:27;;;;;;;8.30;3.10;;;;;;;7.17;56.43;98788.79;105877;1280;25270;-72
2022/02/24 10:22:21;;;;;;;5.90;2.60;;;;;;;7.28;55.31;98779.97;105959;1280;22781;-72
2022/02/24 10:25:05;;;;;;;6.70;2.70;;;;;;;7.42;54.64;98767.98;105754;1280;137149;-73
2022/02/24 10:27:34;;;;;;;15.40;3.30;;;;;;;7.54;55.11;98768.84;105703;1277;22571;-73
2022/02/24 10:30:19;;;;;;;8.90;3.10;;;;;;;7.65;54.57;98764.90;105889;1277;137391;-73
2022/02/24 10:32:52;;;;;;;10.20;3.30;;;;;;;7.76;54.72;98754.31;105938;1277;22573;-72
2022/02/24 10:35:25;;;;;;;6.70;2.80;;;;;;;7.84;53.68;98752.13;106040;1280;137880;-72
2022/02/24 10:38:01;;;;;;;9.30;3.30;;;;;;;7.92;52.26;98745.31;106017;1280;24029;-72
2022/02/24 10:40:34;;;;;;;6.60;3.00;;;;;;;7.98;51.74;98744.14;105806;1280;23335;-72
2022/02/24 10:43:24;;;;;;;8.90;3.10;;;;;;;8.02;51.85;98732.25;105659;1280;24249;-72
2022/02/24 10:46:01;;;;;;;9.00;3.60;;;;;;;8.10;51.39;98724.11;106023;1277;139020;-72
2022/02/24 10:48:57;;;;;;;8.60;3.10;;;;;;;8.15;51.04;98719.70;106158;1277;25343;-72
2022/02/24 10:51:30;;;;;;;8.30;2.90;;;;;;;8.20;50.93;98713.09;105943;1277;137373;-72
2022/02/24 10:54:03;;;;;;;9.30;3.40;;;;;;;8.25;51.20;98708.33;105999;1278;23329;-72
2022/02/24 10:56:31;;;;;;;9.90;3.10;;;;;;;8.33;51.15;98704.55;105971;1277;22670;-72
2022/02/24 10:58:59;;;;;;;13.90;3.70;;;;;;;8.40;50.97;98694.50;105778;1280;137576;-72
2022/02/24 11:01:29;;;;;;;6.60;2.50;;;;;;;8.46;50.56;98689.23;105992;1280;24231;-72
2022/02/24 11:04:01;;;;;;;9.70;2.90;;;;;;;8.52;49.81;98688.46;105898;1280;137218;-72
2022/02/24 11:06:42;;;;;;;12.30;2.90;;;;;;;8.62;50.27;98684.00;106065;1277;25250;-72
2022/02/24 11:09:09;;;;;;;5.90;2.30;;;;;;;8.71;49.13;98679.10;105596;1277;137418;-72
2022/02/24 11:11:37;;;;;;;9.20;2.50;;;;;;;8.77;48.17;98674.55;106227;1277;22571;-72
2022/02/24 11:14:10;;;;;;;6.90;2.40;;;;;;;8.84;49.69;98670.25;106460;1277;22547;-74
2022/02/24 11:16:36;;;;;;;7.70;2.40;;;;;;;8.96;48.41;98659.82;108158;1280;138209;-74
2022/02/24 11:19:04;;;;;;;7.00;2.20;;;;;;;9.09;47.46;98656.09;105635;1280;22555;-75
2022/02/24 11:21:31;;;;;;;9.60;2.90;;;;;;;9.20;48.07;98652.20;105717;1280;137421;-75
2022/02/24 11:23:59;;;;;;;11.00;2.40;;;;;;;9.31;47.73;98646.20;106021;1280;22994;-76
2022/02/24 11:26:46;;;;;;;21.50;4.00;;;;;;;9.41;47.23;98643.13;106127;1278;22560;-76